createdAt,value
2017-05-31T00:01:42.649Z,22.40
2017-05-31T00:04:11.672Z,22.30
2017-05-31T00:06:40.685Z,22.10
2017-05-31T00:09:09.712Z,22.00
2017-05-31T00:11:38.743Z,21.90
2017-05-31T00:14:07.757Z,21.80
2017-05-31T00:16:36.783Z,21.70
2017-05-31T00:19:05.800Z,21.70
2017-05-31T00:21:34.812Z,21.60
2017-05-31T00:24:03.942Z,21.50
2017-05-31T00:26:32.940Z,21.50
2017-05-31T00:29:01.979Z,21.50
2017-05-31T00:31:30.995Z,21.50
2017-05-31T00:34:00.036Z,21.50
2017-05-31T00:36:29.064Z,21.40
2017-05-31T00:38:58.072Z,21.40
2017-05-31T00:41:27.113Z,21.30
2017-05-31T00:43:56.125Z,21.30
2017-05-31T00:46:25.136Z,21.30
2017-05-31T00:48:54.177Z,21.20
2017-05-31T00:51:23.202Z,21.20
2017-05-31T00:53:52.218Z,21.20
2017-05-31T00:56:21.361Z,21.10
2017-05-31T00:58:50.348Z,21.20
2017-05-31T01:01:19.364Z,21.20
2017-05-31T01:03:48.392Z,21.10
2017-05-31T01:06:17.435Z,21.10
2017-05-31T01:08:46.476Z,21.00
2017-05-31T01:11:15.487Z,21.00
2017-05-31T01:13:44.622Z,21.00
2017-05-31T01:16:13.645Z,21.00
2017-05-31T01:18:42.660Z,21.00
2017-05-31T01:21:11.705Z,21.00
2017-05-31T01:23:40.701Z,21.10
2017-05-31T01:26:09.707Z,21.10
2017-05-31T01:28:38.741Z,21.10
2017-05-31T01:31:07.749Z,21.10
2017-05-31T01:33:36.772Z,21.10
2017-05-31T01:36:05.801Z,21.10
2017-05-31T01:38:34.824Z,21.10
2017-05-31T01:41:03.893Z,21.20
2017-05-31T01:43:32.947Z,21.10
2017-05-31T01:46:01.983Z,21.10
2017-05-31T01:48:31.003Z,21.10
2017-05-31T01:51:00.025Z,21.00
2017-05-31T01:53:29.068Z,21.10
2017-05-31T01:55:58.104Z,21.10
2017-05-31T01:58:27.124Z,21.20
2017-05-31T02:00:56.150Z,21.20
2017-05-31T02:03:25.164Z,21.30
2017-05-31T02:05:54.205Z,21.30
2017-05-31T02:08:23.240Z,21.30
2017-05-31T02:10:52.256Z,21.30
2017-05-31T02:13:21.299Z,21.30
2017-05-31T02:15:50.324Z,21.30
2017-05-31T02:18:19.364Z,21.40
2017-05-31T02:20:48.364Z,21.30
2017-05-31T02:23:18.330Z,21.30
2017-05-31T02:25:46.448Z,21.30
2017-05-31T02:28:15.452Z,21.30
2017-05-31T02:30:44.496Z,21.20
2017-05-31T02:33:13.498Z,21.10
2017-05-31T02:35:42.570Z,21.00
2017-05-31T02:38:11.587Z,20.90
2017-05-31T02:40:40.651Z,20.90
2017-05-31T02:43:09.659Z,20.80
2017-05-31T02:45:38.699Z,20.80
2017-05-31T02:48:07.708Z,20.70
2017-05-31T02:50:36.732Z,20.70
2017-05-31T02:53:05.788Z,20.70
2017-05-31T02:55:34.800Z,20.70
2017-05-31T02:58:03.817Z,20.60
2017-05-31T03:00:32.864Z,20.60
2017-05-31T03:03:01.893Z,20.60
2017-05-31T03:05:30.905Z,20.60
2017-05-31T03:07:59.932Z,20.60
2017-05-31T03:10:28.955Z,20.70
2017-05-31T03:12:57.963Z,20.70
2017-05-31T03:15:26.989Z,20.60
2017-05-31T03:17:56.121Z,20.70
2017-05-31T03:20:25.115Z,20.70
2017-05-31T03:22:54.149Z,20.80
2017-05-31T03:25:23.991Z,20.80
2017-05-31T03:27:52.997Z,20.80
2017-05-31T03:30:22.115Z,20.70
2017-05-31T03:32:51.112Z,20.70
2017-05-31T03:35:20.201Z,20.70
2017-05-31T03:37:49.298Z,20.70
2017-05-31T03:40:18.764Z,20.60
2017-05-31T03:42:47.780Z,20.70
2017-05-31T03:45:16.814Z,20.60
2017-05-31T03:47:45.845Z,20.70
2017-05-31T03:50:14.858Z,20.70
2017-05-31T03:52:43.872Z,20.60
2017-05-31T03:55:12.899Z,20.70
2017-05-31T03:57:41.919Z,20.70
2017-05-31T04:00:10.952Z,20.70
2017-05-31T04:02:39.964Z,20.70
2017-05-31T04:05:09.157Z,20.70
2017-05-31T04:07:38.176Z,20.70
2017-05-31T04:10:07.215Z,20.60
2017-05-31T04:12:36.225Z,20.60
2017-05-31T04:15:05.288Z,20.60
2017-05-31T04:17:34.304Z,20.70
2017-05-31T04:20:03.329Z,20.70
2017-05-31T04:22:35.869Z,20.60
2017-05-31T04:25:05.748Z,20.50
2017-05-31T04:27:34.800Z,20.50
2017-05-31T04:30:03.812Z,20.50
2017-05-31T04:32:32.840Z,20.50
2017-05-31T04:35:01.870Z,20.40
2017-05-31T04:37:30.971Z,20.40
2017-05-31T04:40:00.065Z,20.50
2017-05-31T04:42:29.072Z,20.50
2017-05-31T04:44:58.089Z,20.50
2017-05-31T04:47:27.109Z,20.50
2017-05-31T04:49:56.141Z,20.50
2017-05-31T04:52:25.174Z,20.40
2017-05-31T04:54:54.230Z,20.40
2017-05-31T04:57:23.232Z,20.40
2017-05-31T04:59:52.245Z,20.40
2017-05-31T05:02:21.413Z,20.50
2017-05-31T05:04:50.426Z,20.50
2017-05-31T05:07:19.460Z,20.50
2017-05-31T05:09:48.486Z,20.60
2017-05-31T05:12:17.501Z,20.60
2017-05-31T05:14:46.854Z,20.60
2017-05-31T05:17:15.829Z,20.60
2017-05-31T05:19:44.861Z,20.60
2017-05-31T05:22:13.903Z,20.50
2017-05-31T05:24:42.967Z,20.50
2017-05-31T05:27:11.979Z,20.40
2017-05-31T05:29:41.021Z,20.40
2017-05-31T05:32:10.058Z,20.50
2017-05-31T05:34:39.142Z,20.50
2017-05-31T05:37:08.240Z,20.50
2017-05-31T05:39:37.268Z,20.70
2017-05-31T05:42:06.282Z,20.70
2017-05-31T05:44:35.294Z,20.60
2017-05-31T05:47:04.344Z,20.60
2017-05-31T05:49:33.356Z,20.50
2017-05-31T05:52:02.382Z,20.50
2017-05-31T05:54:31.420Z,20.40
2017-05-31T05:57:00.448Z,20.30
2017-05-31T05:59:29.479Z,20.40
2017-05-31T06:01:58.558Z,20.40
2017-05-31T06:04:27.573Z,20.30
2017-05-31T06:06:56.581Z,20.20
2017-05-31T06:09:25.973Z,20.20
2017-05-31T06:11:54.992Z,20.20
2017-05-31T06:14:24.068Z,20.20
2017-05-31T06:16:53.105Z,20.20
2017-05-31T06:19:22.115Z,20.20
2017-05-31T06:21:51.153Z,20.20
2017-05-31T06:24:20.189Z,20.30
2017-05-31T06:26:49.243Z,20.30
2017-05-31T06:29:18.284Z,20.40
2017-05-31T06:31:47.295Z,20.50
2017-05-31T06:34:16.327Z,20.50
2017-05-31T06:36:45.354Z,20.60
2017-05-31T06:39:14.386Z,20.70
2017-05-31T06:41:43.429Z,20.70
2017-05-31T06:44:12.459Z,20.70
2017-05-31T06:46:41.585Z,20.70
2017-05-31T06:49:10.599Z,20.70
2017-05-31T06:51:39.615Z,20.70
2017-05-31T06:54:08.652Z,20.70
2017-05-31T06:56:37.676Z,20.70
2017-05-31T06:59:06.701Z,20.70
2017-05-31T07:01:37.804Z,20.70
2017-05-31T07:04:06.904Z,20.70
2017-05-31T07:06:35.924Z,20.80
2017-05-31T07:09:04.981Z,21.00
2017-05-31T07:11:33.984Z,21.10
2017-05-31T07:14:03.004Z,21.10
2017-05-31T07:16:32.020Z,21.20
